Time;durP1;ratioP1;P1;durP2;ratioP2;P2;SDS_P1;SDS_P2;PMS_P1;PMS_P2;Temp;Humidity;BMP_temperature;BMP_pressure;BME280_temperature;BME280_humidity;BME280_pressure;Samples;Min_cycle;Max_cycle;Signal;HPM_P1;HPM_P2
2021/05/21 00:02:08;;;;;;;0.90;0.90;;;;;;;12.96;49.90;98571.47;3620983;39;20031;-64
2021/05/21 00:04:35;;;;;;;3.95;1.42;;;;;;;12.94;49.54;98569.03;3619844;39;20027;-64
2021/05/21 00:07:04;;;;;;;1.98;1.10;;;;;;;12.96;49.49;98560.84;3619446;39;20035;-64
2021/05/21 00:09:31;;;;;;;1.73;0.80;;;;;;;12.92;49.30;98562.31;3620859;39;20047;-64
2021/05/21 00:11:58;;;;;;;1.25;0.80;;;;;;;12.92;49.19;98543.75;3621595;39;20039;-64
2021/05/21 00:14:26;;;;;;;1.52;0.95;;;;;;;12.96;49.73;98544.94;3619780;39;20030;-64
2021/05/21 00:16:53;;;;;;;0.82;0.75;;;;;;;12.96;49.07;98539.63;3619229;39;20372;-64
2021/05/21 00:19:20;;;;;;;2.53;0.80;;;;;;;12.98;48.92;98540.22;3618932;39;20032;-64
2021/05/21 00:21:48;;;;;;;2.15;1.00;;;;;;;12.99;49.21;98531.25;3621273;39;20054;-64
2021/05/21 00:24:16;;;;;;;0.93;0.80;;;;;;;13.01;48.86;98529.19;3620583;39;20042;-64
2021/05/21 00:26:43;;;;;;;2.00;1.08;;;;;;;13.00;48.45;98536.34;3619148;39;20430;-64
2021/05/21 00:29:10;;;;;;;1.70;0.93;;;;;;;13.02;48.79;98522.84;3618729;39;20116;-64
2021/05/21 00:31:38;;;;;;;1.73;0.90;;;;;;;13.04;48.83;98523.44;3619019;39;20594;-64
2021/05/21 00:34:05;;;;;;;4.78;1.20;;;;;;;13.07;48.65;98515.88;3618846;39;20053;-64
2021/05/21 00:36:32;;;;;;;1.17;0.88;;;;;;;13.08;48.20;98519.34;3617474;39;20050;-65
2021/05/21 00:39:00;;;;;;;1.30;0.90;;;;;;;13.08;48.05;98512.19;3617789;39;20035;-65
2021/05/21 00:41:28;;;;;;;1.88;1.13;;;;;;;13.06;48.19;98513.41;3618097;39;20050;-65
2021/05/21 00:43:56;;;;;;;1.33;1.23;;;;;;;13.07;48.06;98515.06;3619139;39;20047;-65
2021/05/21 00:46:24;;;;;;;1.45;0.80;;;;;;;13.09;48.34;98500.53;3619046;39;20053;-64
2021/05/21 00:48:51;;;;;;;1.50;1.08;;;;;;;13.12;47.90;98501.97;3618954;39;20043;-64
2021/05/21 00:51:19;;;;;;;1.25;0.90;;;;;;;13.11;47.62;98498.50;3618715;39;20347;-64
2021/05/21 00:53:46;;;;;;;0.88;0.88;;;;;;;13.12;47.69;98502.75;3618012;39;20035;-64
2021/05/21 00:56:14;;;;;;;2.10;0.85;;;;;;;13.10;47.74;98488.06;3618923;39;20047;-65
2021/05/21 00:58:42;;;;;;;1.00;0.90;;;;;;;13.10;47.46;98486.25;3619789;39;20081;-65
2021/05/21 01:01:09;;;;;;;1.58;0.82;;;;;;;13.08;47.47;98484.84;3620316;39;20055;-65
2021/05/21 01:03:38;;;;;;;2.00;0.75;;;;;;;13.08;47.35;98474.22;3619265;39;20123;-64
2021/05/21 01:06:06;;;;;;;2.25;0.85;;;;;;;13.07;47.58;98472.59;3620251;39;20059;-65
2021/05/21 01:08:34;;;;;;;1.90;1.10;;;;;;;13.06;47.27;98463.84;3619824;39;20047;-65
2021/05/21 01:11:04;;;;;;;1.80;0.73;;;;;;;13.09;47.48;98452.78;3620175;39;20039;-65
2021/05/21 01:13:32;;;;;;;3.05;0.95;;;;;;;13.11;47.38;98460.53;3620217;39;20494;-65
2021/05/21 01:16:00;;;;;;;2.55;0.90;;;;;;;13.13;47.34;98448.66;3620222;39;20054;-65
2021/05/21 01:18:28;;;;;;;1.48;1.05;;;;;;;13.19;47.40;98446.19;3620330;39;20527;-64
2021/05/21 01:20:56;;;;;;;2.00;1.00;;;;;;;13.19;47.03;98444.34;3620290;39;20028;-64
2021/05/21 01:23:24;;;;;;;2.28;0.95;;;;;;;13.19;47.09;98449.63;3620116;39;20055;-64
2021/05/21 01:25:51;;;;;;;1.80;1.40;;;;;;;13.18;47.21;98449.84;3619997;39;20043;-64
2021/05/21 01:28:19;;;;;;;2.65;1.10;;;;;;;13.18;47.17;98450.66;3619716;39;20051;-65
2021/05/21 01:30:47;;;;;;;1.42;1.00;;;;;;;13.20;46.79;98443.28;3619908;39;20047;-65
2021/05/21 01:33:15;;;;;;;0.85;0.80;;;;;;;13.16;46.66;98439.44;3620133;39;20049;-64
2021/05/21 01:35:43;;;;;;;1.80;0.95;;;;;;;13.19;46.92;98433.72;3619949;39;20043;-65
2021/05/21 01:38:12;;;;;;;1.02;0.80;;;;;;;13.14;46.96;98430.88;3619507;39;20039;-64
2021/05/21 01:40:41;;;;;;;1.85;1.00;;;;;;;13.10;46.74;98427.03;3622894;39;20043;-64
2021/05/21 01:43:11;;;;;;;1.75;1.00;;;;;;;13.07;46.70;98422.19;3621154;39;20054;-65
2021/05/21 01:45:39;;;;;;;1.88;1.00;;;;;;;13.05;47.11;98411.78;3625770;39;20047;-64
2021/05/21 01:48:08;;;;;;;1.98;1.17;;;;;;;13.03;46.72;98413.03;3625777;39;20389;-64
2021/05/21 01:50:35;;;;;;;1.70;1.08;;;;;;;13.00;46.81;98413.47;3626445;39;20055;-64
2021/05/21 01:53:03;;;;;;;1.63;1.20;;;;;;;12.99;47.00;98409.19;3623283;39;20043;-64
2021/05/21 01:55:32;;;;;;;3.03;0.85;;;;;;;12.99;46.81;98402.03;3621093;39;20044;-64
2021/05/21 01:58:00;;;;;;;0.93;0.80;;;;;;;12.95;46.79;98408.00;3620741;39;20054;-65
2021/05/21 02:00:27;;;;;;;2.63;1.10;;;;;;;12.92;47.05;98393.31;3625055;39;20050;-64
2021/05/21 02:02:55;;;;;;;4.15;1.00;;;;;;;12.91;47.29;98396.22;3624237;39;20054;-64
2021/05/21 02:05:22;;;;;;;2.05;1.00;;;;;;;12.92;47.17;98401.28;3620014;39;20046;-64
2021/05/21 02:07:50;;;;;;;2.95;0.98;;;;;;;12.93;47.30;98394.13;3620863;39;20050;-65
2021/05/21 02:10:17;;;;;;;1.15;1.05;;;;;;;12.92;46.98;98385.38;3621094;39;20319;-64
2021/05/21 02:12:45;;;;;;;5.03;1.13;;;;;;;12.90;46.82;98376.81;3620448;39;20051;-65
2021/05/21 02:15:14;;;;;;;3.35;1.10;;;;;;;12.91;47.09;98378.44;3619392;39;20063;-64
2021/05/21 02:17:42;;;;;;;2.03;0.75;;;;;;;12.91;46.87;98374.97;3620444;39;20043;-64
2021/05/21 02:20:12;;;;;;;0.82;0.82;;;;;;;12.92;46.94;98363.34;3620697;39;20023;-65
2021/05/21 02:22:40;;;;;;;2.35;0.70;;;;;;;12.87;47.15;98362.16;3620767;39;20066;-64
2021/05/21 02:25:09;;;;;;;0.98;0.90;;;;;;;12.86;46.96;98359.72;3620426;39;20043;-64
2021/05/21 02:27:37;;;;;;;2.28;0.90;;;;;;;12.85;47.03;98353.56;3620110;39;20047;-63
2021/05/21 02:30:07;;;;;;;3.40;0.80;;;;;;;12.84;47.20;98351.16;3620965;39;20616;-63
2021/05/21 02:32:34;;;;;;;1.98;0.90;;;;;;;12.86;46.87;98349.13;3621489;39;20047;-64
2021/05/21 02:35:02;;;;;;;1.00;0.80;;;;;;;12.86;46.93;98339.31;3620749;39;20385;-64
2021/05/21 02:37:29;;;;;;;3.60;0.93;;;;;;;12.88;46.92;98331.13;3650507;22;20049;-64
2021/05/21 02:39:57;;;;;;;0.90;0.82;;;;;;;12.87;47.07;98319.72;3589256;40;20408;-64
2021/05/21 02:42:25;;;;;;;2.08;0.70;;;;;;;12.82;47.11;98316.91;3589058;40;20044;-64
2021/05/21 02:44:52;;;;;;;1.45;0.82;;;;;;;12.83;46.97;98317.72;3589356;40;20496;-64
2021/05/21 02:47:20;;;;;;;1.42;0.80;;;;;;;12.83;46.99;98315.06;3588914;40;20048;-64
2021/05/21 02:49:48;;;;;;;2.65;0.98;;;;;;;12.80;47.27;98304.88;3589294;40;20393;-64
2021/05/21 02:52:17;;;;;;;1.60;0.80;;;;;;;12.80;47.08;98312.84;3588986;40;20049;-64
2021/05/21 02:54:44;;;;;;;1.13;0.80;;;;;;;12.78;47.33;98310.41;3589643;40;20048;-63
2021/05/21 02:57:11;;;;;;;2.15;0.95;;;;;;;12.78;47.34;98305.09;3588964;40;20064;-64
2021/05/21 02:59:38;;;;;;;2.42;1.02;;;;;;;12.75;47.31;98300.22;3589526;40;20044;-64
2021/05/21 03:02:05;;;;;;;4.80;1.00;;;;;;;12.71;47.12;98303.53;3590223;40;20059;-63
2021/05/21 03:04:33;;;;;;;1.38;0.90;;;;;;;12.65;47.60;98289.28;3589985;40;20055;-63
2021/05/21 03:07:01;;;;;;;3.97;0.90;;;;;;;12.65;47.27;98289.28;3580558;40;20048;-64
2021/05/21 03:09:30;;;;;;;1.33;1.00;;;;;;;12.62;47.72;98287.09;3580116;40;20320;-64
2021/05/21 03:11:57;;;;;;;2.90;1.25;;;;;;;12.60;47.60;98278.53;3580166;40;20055;-64
2021/05/21 03:14:24;;;;;;;1.50;0.85;;;;;;;12.55;47.64;98273.09;3589129;40;20133;-64
2021/05/21 03:16:51;;;;;;;1.52;0.80;;;;;;;12.52;47.41;98274.31;3579452;40;20044;-64
2021/05/21 03:19:18;;;;;;;1.75;1.00;;;;;;;12.51;47.76;98262.09;3588344;40;20055;-64
2021/05/21 03:21:47;;;;;;;2.03;0.90;;;;;;;12.48;47.57;98273.13;3588822;40;20051;-65
2021/05/21 03:24:14;;;;;;;3.35;0.90;;;;;;;12.46;47.67;98275.22;3588795;40;20056;-65
2021/05/21 03:26:41;;;;;;;1.33;0.90;;;;;;;12.48;47.55;98265.19;3588864;40;20409;-64
2021/05/21 03:29:08;;;;;;;1.92;1.05;;;;;;;12.47;47.74;98260.09;3588908;40;20052;-64
2021/05/21 03:31:36;;;;;;;3.42;0.90;;;;;;;12.42;47.56;98263.41;3579643;40;20048;-64
2021/05/21 03:34:03;;;;;;;1.00;0.90;;;;;;;12.39;47.94;98248.75;3588848;40;20044;-62
2021/05/21 03:36:30;;;;;;;1.17;0.80;;;;;;;12.40;47.79;98245.06;3588927;40;20055;-62
2021/05/21 03:38:58;;;;;;;4.05;1.02;;;;;;;12.37;47.49;98237.56;3588648;40;20067;-63
2021/05/21 03:41:26;;;;;;;2.47;1.13;;;;;;;12.34;47.83;98243.28;3588704;40;20060;-63
2021/05/21 03:43:53;;;;;;;5.18;1.95;;;;;;;12.34;47.42;98247.78;3589300;40;20036;-63
2021/05/21 03:46:20;;;;;;;2.42;1.80;;;;;;;12.35;47.79;98252.06;3579913;40;20040;-63
2021/05/21 03:48:48;;;;;;;2.50;1.30;;;;;;;12.33;47.81;98241.69;3589230;40;20048;-63
2021/05/21 03:51:17;;;;;;;2.00;0.60;;;;;;;12.31;47.65;98241.06;3593066;40;20052;-62
2021/05/21 03:53:45;;;;;;;2.95;1.42;;;;;;;12.32;47.83;98242.69;3591860;40;20052;-63
2021/05/21 03:56:14;;;;;;;4.30;1.48;;;;;;;12.35;47.75;98239.59;3589098;40;20033;-64
2021/05/21 03:58:41;;;;;;;2.80;1.02;;;;;;;12.30;47.89;98239.47;3588385;40;20060;-63
2021/05/21 04:01:09;;;;;;;1.10;1.00;;;;;;;12.34;47.48;98240.66;3589024;40;20055;-63
2021/05/21 04:03:36;;;;;;;1.30;0.90;;;;;;;12.37;47.75;98234.09;3588568;40;20044;-63
2021/05/21 04:06:04;;;;;;;1.38;0.80;;;;;;;12.41;47.89;98227.34;3588537;40;20077;-63
2021/05/21 04:08:32;;;;;;;1.00;0.80;;;;;;;12.47;47.90;98233.59;3588224;40;20048;-64
2021/05/21 04:10:59;;;;;;;3.85;0.80;;;;;;;12.48;47.61;98228.06;3588700;40;20083;-63
2021/05/21 04:13:31;;;;;;;2.08;1.05;;;;;;;12.49;47.51;98227.06;3588849;40;20060;-63
2021/05/21 04:15:58;;;;;;;1.08;0.98;;;;;;;12.53;47.48;98227.41;3588829;40;20051;-63
2021/05/21 04:18:25;;;;;;;1.50;1.08;;;;;;;12.54;47.43;98223.75;3578811;40;20455;-63
2021/05/21 04:20:53;;;;;;;2.05;1.27;;;;;;;12.55;47.78;98220.88;3588862;40;20321;-63
2021/05/21 04:23:20;;;;;;;1.67;1.00;;;;;;;12.55;47.85;98218.22;3588787;40;20118;-63
2021/05/21 04:25:49;;;;;;;1.73;0.98;;;;;;;12.59;47.91;98221.25;3588543;40;20040;-63
2021/05/21 04:28:16;;;;;;;2.80;1.17;;;;;;;12.61;47.74;98212.06;3588060;40;20075;-63
2021/05/21 04:30:44;;;;;;;3.95;1.20;;;;;;;12.64;47.97;98202.81;3589811;40;20055;-63
2021/05/21 04:33:11;;;;;;;1.92;1.10;;;;;;;12.67;47.67;98201.59;3590060;40;20317;-63
2021/05/21 04:35:38;;;;;;;3.22;1.08;;;;;;;12.69;48.00;98197.66;3589880;40;20024;-64
2021/05/21 04:38:06;;;;;;;4.65;1.13;;;;;;;12.75;47.91;98196.00;3589758;40;20129;-64
2021/05/21 04:40:33;;;;;;;2.90;1.20;;;;;;;12.80;47.93;98202.25;3589825;40;20092;-64
2021/05/21 04:43:01;;;;;;;6.85;1.00;;;;;;;12.87;47.60;98203.00;3589637;40;20350;-63
2021/05/21 04:45:28;;;;;;;1.67;1.10;;;;;;;12.92;47.74;98198.84;3580834;40;20052;-64
2021/05/21 04:47:56;;;;;;;1.73;1.05;;;;;;;13.00;47.84;98195.91;3589958;40;20048;-64
2021/05/21 04:50:23;;;;;;;7.75;1.45;;;;;;;13.00;47.61;98196.72;3580789;40;20060;-63
2021/05/21 04:52:50;;;;;;;3.63;2.13;;;;;;;13.03;47.83;98198.13;3590035;40;20056;-63
2021/05/21 04:55:18;;;;;;;1.25;1.00;;;;;;;13.06;47.88;98195.00;3589774;40;20045;-64
2021/05/21 04:57:49;;;;;;;4.50;1.58;;;;;;;13.09;47.77;98192.72;3589685;40;20402;-63
2021/05/21 05:00:17;;;;;;;1.38;1.00;;;;;;;13.11;47.47;98197.81;3589942;40;20048;-63
2021/05/21 05:02:45;;;;;;;1.83;0.82;;;;;;;13.13;47.58;98196.53;3589980;40;20056;-63
2021/05/21 05:05:13;;;;;;;2.58;1.13;;;;;;;13.18;47.61;98193.22;3589900;40;20040;-63
2021/05/21 05:07:40;;;;;;;2.03;0.98;;;;;;;13.23;47.80;98188.09;3589496;40;20056;-64
2021/05/21 05:10:09;;;;;;;2.92;1.27;;;;;;;13.27;47.66;98178.66;3589912;40;20059;-62
2021/05/21 05:12:36;;;;;;;2.00;0.90;;;;;;;13.36;47.79;98176.47;3590203;40;20398;-62
2021/05/21 05:15:04;;;;;;;2.25;1.17;;;;;;;13.40;47.70;98164.38;3580541;40;20384;-62
2021/05/21 05:17:32;;;;;;;1.98;1.23;;;;;;;13.43;47.46;98163.94;3589567;40;20063;-63
2021/05/21 05:19:59;;;;;;;2.08;1.10;;;;;;;13.48;47.50;98164.06;3590152;40;20066;-62
2021/05/21 05:22:27;;;;;;;3.45;1.40;;;;;;;13.52;47.59;98159.91;3589412;40;20068;-64
2021/05/21 05:24:55;;;;;;;4.03;1.23;;;;;;;13.54;47.58;98154.34;3580474;40;20064;-64
2021/05/21 05:27:23;;;;;;;2.95;1.20;;;;;;;13.58;47.46;98147.56;3589358;40;20060;-64
2021/05/21 05:29:50;;;;;;;2.72;0.90;;;;;;;13.59;47.19;98159.78;3589670;40;20048;-64
2021/05/21 05:32:17;;;;;;;2.10;1.23;;;;;;;13.59;47.34;98157.13;3589413;40;20059;-64
2021/05/21 05:34:45;;;;;;;3.35;1.30;;;;;;;13.70;47.24;98159.03;3589298;40;20059;-64
2021/05/21 05:37:12;;;;;;;2.35;0.98;;;;;;;13.78;47.46;98153.38;3579683;40;20044;-64
2021/05/21 05:39:40;;;;;;;1.75;1.13;;;;;;;13.86;47.20;98147.72;3589594;40;20410;-63
2021/05/21 05:42:10;;;;;;;2.25;1.10;;;;;;;13.92;47.15;98145.19;3589343;40;20059;-63
2021/05/21 05:44:37;;;;;;;3.53;1.00;;;;;;;13.96;46.85;98143.69;3589604;40;20044;-63
2021/05/21 05:47:04;;;;;;;1.60;1.08;;;;;;;14.00;47.16;98147.50;3589422;40;20040;-63
2021/05/21 05:49:32;;;;;;;2.97;1.08;;;;;;;14.03;46.79;98144.38;3589551;40;20394;-63
2021/05/21 05:51:59;;;;;;;4.93;3.45;;;;;;;14.08;46.88;98144.50;3589614;40;20044;-63
2021/05/21 05:54:27;;;;;;;1.38;1.27;;;;;;;14.10;47.21;98150.41;3589486;40;20052;-64
2021/05/21 05:56:55;;;;;;;4.38;2.40;;;;;;;14.17;46.87;98145.78;3589398;40;20052;-63
2021/05/21 05:59:25;;;;;;;1.90;1.45;;;;;;;14.18;46.69;98126.13;3589379;40;20310;-63
2021/05/21 06:01:52;;;;;;;2.65;1.50;;;;;;;14.26;47.11;98125.78;3580168;40;20353;-63
2021/05/21 06:04:19;;;;;;;2.38;1.00;;;;;;;14.27;46.78;98130.06;3580535;40;20309;-63
2021/05/21 06:06:47;;;;;;;5.50;1.27;;;;;;;14.31;46.75;98127.75;3589351;40;20033;-63
2021/05/21 06:09:14;;;;;;;2.65;1.20;;;;;;;14.31;46.63;98131.19;3589371;40;20409;-63
2021/05/21 06:11:42;;;;;;;4.57;0.98;;;;;;;14.31;46.85;98131.19;3589396;40;20048;-62
2021/05/21 06:14:10;;;;;;;3.92;1.10;;;;;;;14.39;47.00;98140.69;3589621;40;20044;-63
2021/05/21 06:16:37;;;;;;;1.60;1.13;;;;;;;14.40;46.58;98133.50;3590153;40;20059;-62
2021/05/21 06:19:04;;;;;;;1.88;1.10;;;;;;;14.44;46.62;98135.47;3589422;40;20048;-62
2021/05/21 06:21:32;;;;;;;1.30;0.95;;;;;;;14.45;46.58;98129.13;3580308;40;20349;-64
2021/05/21 06:23:59;;;;;;;2.78;1.77;;;;;;;14.51;46.66;98132.72;3580037;40;20048;-64
2021/05/21 06:26:43;;;;;;;1.30;1.13;;;;;;;14.55;46.47;98132.00;3580247;40;20048;-64
2021/05/21 06:29:12;;;;;;;2.75;1.17;;;;;;;14.53;46.79;98136.78;3589285;40;20059;-64
2021/05/21 06:31:40;;;;;;;1.95;1.35;;;;;;;14.51;46.87;98132.72;3590273;40;20044;-63
2021/05/21 06:34:07;;;;;;;2.10;0.90;;;;;;;14.55;46.88;98126.69;3591383;40;20048;-64
2021/05/21 06:36:34;;;;;;;4.25;1.20;;;;;;;14.67;46.71;98139.16;3589805;40;20033;-64
2021/05/21 06:39:01;;;;;;;1.38;1.05;;;;;;;14.72;46.37;98132.09;3579670;40;20334;-65
2021/05/21 06:41:29;;;;;;;1.98;0.93;;;;;;;14.83;46.51;98133.09;3589198;40;20052;-65
2021/05/21 06:43:56;;;;;;;3.20;0.90;;;;;;;14.85;46.39;98141.66;3588917;40;20050;-65
2021/05/21 06:46:24;;;;;;;2.67;1.15;;;;;;;14.90;46.43;98143.59;3589507;40;20049;-65
2021/05/21 06:48:51;;;;;;;1.73;1.20;;;;;;;14.88;45.93;98151.81;3588895;40;20055;-65
2021/05/21 06:51:19;;;;;;;2.17;1.00;;;;;;;14.82;46.23;98131.50;3589195;40;20504;-64
2021/05/21 06:53:46;;;;;;;2.92;1.20;;;;;;;14.80;46.08;98145.03;3589456;40;20130;-65
2021/05/21 06:56:15;;;;;;;2.15;0.90;;;;;;;14.74;46.22;98140.66;3588839;40;20049;-65
2021/05/21 06:58:43;;;;;;;2.00;0.98;;;;;;;14.79;46.61;98140.75;3588954;40;20048;-64
2021/05/21 07:01:10;;;;;;;2.13;1.27;;;;;;;14.81;46.13;98141.31;3588806;40;20051;-64
2021/05/21 07:03:38;;;;;;;1.58;1.05;;;;;;;14.79;46.17;98134.63;3589094;40;20044;-64
2021/05/21 07:06:06;;;;;;;2.65;1.10;;;;;;;14.71;46.26;98143.78;3589065;40;20041;-64
2021/05/21 07:08:33;;;;;;;3.28;1.40;;;;;;;14.60;46.68;98136.63;3589076;40;20056;-64
2021/05/21 07:11:00;;;;;;;3.30;1.25;;;;;;;14.57;46.95;98139.75;3588980;40;20048;-65
2021/05/21 07:13:29;;;;;;;1.48;0.80;;;;;;;14.44;47.10;98135.47;3588861;40;20048;-65
2021/05/21 07:15:57;;;;;;;2.20;1.10;;;;;;;14.36;48.01;98138.47;3588988;40;20041;-66
2021/05/21 07:18:25;;;;;;;3.53;0.90;;;;;;;14.36;48.01;98155.22;3588548;40;20055;-66
2021/05/21 07:20:59;;;;;;;2.03;1.17;;;;;;;14.38;47.63;98163.00;3588929;40;20036;-66
2021/05/21 07:23:26;;;;;;;3.25;1.10;;;;;;;14.37;47.83;98156.88;3588622;40;20052;-66
2021/05/21 07:25:53;;;;;;;3.67;0.90;;;;;;;14.29;48.11;98143.13;3588893;40;20116;-66
2021/05/21 07:28:21;;;;;;;1.85;0.90;;;;;;;14.25;48.21;98149.94;3588500;40;20059;-66
2021/05/21 07:30:48;;;;;;;4.28;1.23;;;;;;;14.23;48.38;98152.81;3588595;40;20072;-66
2021/05/21 07:33:15;;;;;;;4.18;1.45;;;;;;;14.22;48.46;98145.91;3588654;40;20056;-66
2021/05/21 07:35:43;;;;;;;1.98;1.00;;;;;;;14.28;48.35;98144.94;3588950;40;20063;-66
2021/05/21 07:38:11;;;;;;;1.63;0.77;;;;;;;14.29;48.03;98135.16;3589025;40;20055;-65
2021/05/21 07:40:41;;;;;;;2.95;1.17;;;;;;;14.35;47.79;98144.84;3580063;40;20051;-66
2021/05/21 07:43:08;;;;;;;1.80;1.02;;;;;;;14.44;47.91;98146.09;3590043;40;20537;-66
2021/05/21 07:45:36;;;;;;;3.15;1.15;;;;;;;14.52;47.95;98160.91;3588889;40;20044;-65
2021/05/21 07:48:04;;;;;;;4.80;1.20;;;;;;;14.49;47.73;98146.25;3588328;40;20044;-65
2021/05/21 07:50:31;;;;;;;3.08;1.30;;;;;;;14.46;47.80;98148.53;3588782;40;20048;-66
2021/05/21 07:52:59;;;;;;;5.32;1.35;;;;;;;14.51;47.81;98159.31;3588567;40;20068;-65
2021/05/21 07:55:27;;;;;;;3.05;0.80;;;;;;;14.63;47.66;98151.31;3579182;40;20506;-65
2021/05/21 07:57:54;;;;;;;3.38;1.40;;;;;;;14.77;47.70;98155.31;3588466;40;20044;-65
2021/05/21 08:00:22;;;;;;;1.60;0.98;;;;;;;14.76;47.33;98151.06;3588466;40;20491;-66
2021/05/21 08:02:49;;;;;;;2.70;1.20;;;;;;;14.73;47.75;98152.31;3588637;40;20121;-65
2021/05/21 08:05:17;;;;;;;2.53;1.42;;;;;;;14.83;47.83;98147.22;3578672;40;20325;-66
2021/05/21 08:07:45;;;;;;;2.15;1.33;;;;;;;14.95;47.43;98143.72;3588146;40;20382;-66
2021/05/21 08:10:13;;;;;;;3.08;1.15;;;;;;;14.86;47.93;98149.41;3588391;40;20329;-65
2021/05/21 08:12:41;;;;;;;2.25;1.13;;;;;;;14.83;48.05;98143.75;3588761;40;20329;-66
2021/05/21 08:15:10;;;;;;;6.15;1.63;;;;;;;14.66;48.35;98146.34;3579346;40;20076;-66
2021/05/21 08:17:37;;;;;;;2.75;1.38;;;;;;;14.59;48.50;98149.13;3579230;40;20052;-65
2021/05/21 08:20:09;;;;;;;3.55;1.40;;;;;;;14.78;48.56;98141.81;3589619;40;20055;-65
2021/05/21 08:22:37;;;;;;;4.38;1.55;;;;;;;14.92;47.86;98146.84;3588737;40;20063;-65
2021/05/21 08:25:06;;;;;;;2.10;1.48;;;;;;;15.08;47.79;98159.41;3579477;40;20081;-65
2021/05/21 08:27:33;;;;;;;2.08;1.60;;;;;;;15.34;47.60;98166.00;3588491;40;20045;-65
2021/05/21 08:30:03;;;;;;;4.30;1.63;;;;;;;15.49;47.43;98162.81;3588470;40;20125;-66
2021/05/21 08:32:35;;;;;;;2.67;1.38;;;;;;;15.59;46.81;98165.63;3579205;40;20083;-66
2021/05/21 08:35:03;;;;;;;3.05;1.50;;;;;;;15.59;47.43;98178.97;3588378;40;20452;-66
2021/05/21 08:37:30;;;;;;;4.13;1.42;;;;;;;15.38;47.39;98175.13;3589073;40;20044;-66
2021/05/21 08:39:58;;;;;;;4.72;1.50;;;;;;;15.14;47.55;98174.41;3580222;40;20056;-66
2021/05/21 08:42:30;;;;;;;4.97;2.13;;;;;;;14.97;48.38;98179.69;3588372;40;20052;-66
2021/05/21 08:44:58;;;;;;;10.27;2.35;;;;;;;14.84;48.70;98183.41;3588140;40;20052;-66
2021/05/21 08:47:26;;;;;;;5.70;2.05;;;;;;;14.94;48.66;98185.50;3588101;40;20318;-64
2021/05/21 08:49:54;;;;;;;6.72;2.28;;;;;;;15.09;48.92;98182.31;3588333;40;20330;-64
2021/05/21 08:52:21;;;;;;;3.35;1.52;;;;;;;15.24;48.39;98174.63;3588590;40;20056;-63
2021/05/21 08:54:48;;;;;;;5.22;1.90;;;;;;;15.42;48.40;98183.44;3588193;40;20048;-64
2021/05/21 08:57:18;;;;;;;5.57;2.63;;;;;;;15.40;48.02;98177.56;3588079;40;20048;-64
2021/05/21 08:59:47;;;;;;;5.47;1.73;;;;;;;15.19;48.14;98173.72;3588572;40;20056;-63
2021/05/21 09:02:17;;;;;;;10.52;2.05;;;;;;;15.36;48.10;98180.72;3578764;40;20541;-65
2021/05/21 09:04:51;;;;;;;5.43;1.98;;;;;;;15.75;47.96;98178.19;3588398;40;20310;-64
2021/05/21 09:07:20;;;;;;;7.15;2.80;;;;;;;16.04;47.45;98164.81;3587584;40;20586;-64
2021/05/21 09:09:48;;;;;;;6.22;1.60;;;;;;;16.18;46.64;98167.97;3579073;40;20048;-64
2021/05/21 09:12:17;;;;;;;3.53;1.50;;;;;;;16.31;46.65;98155.09;3588584;40;20078;-65
2021/05/21 09:15:04;;;;;;;4.97;1.70;;;;;;;16.26;46.12;98148.88;3588411;40;20048;-64
2021/05/21 09:17:32;;;;;;;6.28;1.95;;;;;;;16.55;45.55;98160.22;3589594;40;20368;-64
2021/05/21 09:20:00;;;;;;;6.65;1.65;;;;;;;16.42;45.75;98152.56;3590645;40;20041;-63
2021/05/21 09:22:58;;;;;;;4.25;1.45;;;;;;;16.44;45.58;98171.78;3582985;40;20048;-64
2021/05/21 09:25:37;;;;;;;8.18;2.10;;;;;;;16.43;45.42;98151.50;3590928;40;20322;-63
2021/05/21 09:28:05;;;;;;;7.32;2.58;;;;;;;16.56;44.67;98173.28;3590107;40;20294;-63
2021/05/21 09:30:33;;;;;;;4.95;1.70;;;;;;;16.43;44.83;98179.00;3590574;40;20055;-63
2021/05/21 09:33:05;;;;;;;13.98;1.73;;;;;;;16.26;44.83;98164.88;3590540;40;20067;-64
2021/05/21 09:35:33;;;;;;;2.33;1.25;;;;;;;16.33;45.61;98179.66;3590191;40;20025;-64
2021/05/21 09:38:01;;;;;;;7.45;1.90;;;;;;;16.49;45.17;98170.03;3590207;40;20060;-64
2021/05/21 09:40:30;;;;;;;3.63;1.55;;;;;;;16.79;45.14;98174.97;3589765;40;20049;-64
2021/05/21 09:42:59;;;;;;;5.20;1.73;;;;;;;16.60;45.14;98177.09;3589751;40;20060;-64
2021/05/21 09:45:32;;;;;;;8.55;1.83;;;;;;;16.47;45.25;98164.09;3589558;40;20052;-64
2021/05/21 09:48:03;;;;;;;3.78;1.52;;;;;;;16.62;45.58;98168.06;3589465;40;20052;-64
2021/05/21 09:50:37;;;;;;;5.22;1.60;;;;;;;16.68;45.31;98159.84;3589497;40;20067;-64
2021/05/21 09:53:08;;;;;;;5.68;1.77;;;;;;;16.75;45.38;98160.50;3589628;40;20305;-64
2021/05/21 09:55:41;;;;;;;3.78;1.55;;;;;;;16.76;44.59;98148.78;3589426;40;20045;-64
2021/05/21 09:58:23;;;;;;;4.53;1.15;;;;;;;16.77;44.34;98179.72;3589082;40;20051;-64
2021/05/21 10:01:08;;;;;;;6.90;1.55;;;;;;;16.57;43.95;98166.09;3589882;40;20055;-64
2021/05/21 10:03:36;;;;;;;7.07;2.10;;;;;;;16.68;43.97;98162.50;3590257;40;20071;-64
2021/05/21 10:06:05;;;;;;;3.65;1.40;;;;;;;16.75;43.58;98162.38;3590076;40;20048;-65
2021/05/21 10:08:33;;;;;;;5.03;1.80;;;;;;;16.90;43.99;98159.06;3590635;40;20083;-65
2021/05/21 10:11:00;;;;;;;5.10;1.63;;;;;;;17.00;42.75;98152.00;3590118;40;20044;-64
2021/05/21 10:13:28;;;;;;;4.60;1.55;;;;;;;17.04;42.82;98160.31;3589270;40;20059;-64
2021/05/21 10:15:56;;;;;;;6.15;1.48;;;;;;;17.18;42.53;98200.78;3589226;40;20118;-65
2021/05/21 10:18:24;;;;;;;4.22;1.38;;;;;;;16.98;42.84;98166.63;3589413;40;20109;-63
2021/05/21 10:20:53;;;;;;;7.68;1.70;;;;;;;17.09;42.68;98153.16;3589717;40;20056;-63
2021/05/21 10:23:24;;;;;;;3.85;1.63;;;;;;;17.28;42.47;98160.84;3589455;40;20388;-64
2021/05/21 10:25:55;;;;;;;3.83;1.30;;;;;;;17.50;41.64;98155.44;3589665;40;20036;-63
2021/05/21 10:28:27;;;;;;;4.15;1.50;;;;;;;17.40;41.03;98156.16;3589370;40;20052;-63
2021/05/21 10:30:57;;;;;;;5.93;1.73;;;;;;;17.38;41.12;98144.09;3589852;40;20051;-63
2021/05/21 10:33:31;;;;;;;4.30;1.73;;;;;;;17.53;41.15;98173.66;3589642;40;20057;-63
2021/05/21 10:36:29;;;;;;;4.03;1.10;;;;;;;17.53;40.61;98165.63;3589857;40;20114;-63
2021/05/21 10:39:18;;;;;;;7.60;1.90;;;;;;;17.71;40.62;98148.41;3590315;40;20387;-64
2021/05/21 10:42:20;;;;;;;3.35;1.55;;;;;;;18.05;40.09;98151.66;3591176;40;20066;-63
2021/05/21 10:45:14;;;;;;;8.45;1.92;;;;;;;18.20;39.75;98154.44;3583555;40;20174;-65
2021/05/21 10:47:44;;;;;;;3.75;1.40;;;;;;;18.25;40.02;98146.47;3588754;40;20045;-63
2021/05/21 10:50:18;;;;;;;5.30;1.35;;;;;;;18.14;39.15;98127.91;3589553;40;20059;-64
2021/05/21 10:52:52;;;;;;;7.20;1.80;;;;;;;18.09;39.26;98143.94;3589444;40;20055;-64
2021/05/21 10:55:37;;;;;;;2.70;1.10;;;;;;;18.14;39.30;98138.63;3579861;40;20127;-64
2021/05/21 10:58:04;;;;;;;2.53;1.08;;;;;;;18.36;39.47;98144.63;3588948;40;20045;-64
2021/05/21 11:00:33;;;;;;;6.50;1.88;;;;;;;18.26;38.59;98134.69;3589282;40;20055;-64
2021/05/21 11:03:00;;;;;;;6.13;1.58;;;;;;;18.12;38.33;98154.91;3588969;40;20042;-64
2021/05/21 11:05:31;;;;;;;4.72;1.45;;;;;;;17.98;37.92;98151.88;3588923;40;20063;-64
2021/05/21 11:08:00;;;;;;;4.07;1.70;;;;;;;17.86;38.27;98143.22;3588732;40;20056;-64
2021/05/21 11:10:42;;;;;;;3.47;1.40;;;;;;;17.77;38.87;98134.06;3589419;40;20059;-65
2021/05/21 11:13:12;;;;;;;4.60;1.30;;;;;;;17.82;39.40;98145.59;3589086;40;20048;-65
2021/05/21 11:15:41;;;;;;;9.73;1.92;;;;;;;17.81;39.03;98145.88;3588993;40;20041;-64
2021/05/21 11:18:26;;;;;;;8.77;2.10;;;;;;;17.83;39.19;98152.56;3588609;40;20052;-65
2021/05/21 11:21:03;;;;;;;4.25;1.40;;;;;;;17.88;39.08;98146.47;3589270;40;20025;-65
2021/05/21 11:23:36;;;;;;;4.60;1.42;;;;;;;18.11;39.05;98147.16;3589224;40;20056;-65
2021/05/21 11:26:21;;;;;;;4.75;1.45;;;;;;;18.14;38.69;98141.28;3588779;40;20318;-65
2021/05/21 11:28:50;;;;;;;3.63;1.33;;;;;;;18.08;38.30;98143.09;3588594;40;20338;-65
2021/05/21 11:31:19;;;;;;;4.68;1.92;;;;;;;18.02;38.20;98128.91;3589428;40;20035;-65
2021/05/21 11:33:48;;;;;;;5.65;1.60;;;;;;;17.92;37.87;98126.19;3580203;40;20432;-65
2021/05/21 11:36:15;;;;;;;6.35;1.50;;;;;;;17.88;37.28;98129.59;3589282;40;20033;-65
2021/05/21 11:38:43;;;;;;;4.68;1.60;;;;;;;17.86;37.57;98113.81;3588142;40;20051;-65
2021/05/21 11:41:12;;;;;;;6.22;1.80;;;;;;;18.00;36.88;98131.03;3588752;40;20048;-65
2021/05/21 11:43:41;;;;;;;5.53;1.50;;;;;;;17.91;37.21;98139.78;3589033;40;20044;-64